createdAt,value
2018-03-20T00:00:57.901Z,1006.2
2018-03-20T00:01:59.648Z,1006.3
2018-03-20T00:03:01.449Z,1006.3
2018-03-20T00:04:03.250Z,1006.3
2018-03-20T00:05:05.019Z,1006.2
2018-03-20T00:06:06.764Z,1006.2
2018-03-20T00:07:08.463Z,1006.3
2018-03-20T00:08:10.232Z,1006.2
2018-03-20T00:09:11.989Z,1006.2
2018-03-20T00:10:13.856Z,1006.2
2018-03-20T00:11:15.609Z,1006.2
2018-03-20T00:12:17.403Z,1006.2
2018-03-20T00:13:19.042Z,1006.2
2018-03-20T00:14:20.788Z,1006.2
2018-03-20T00:15:22.646Z,1006.3
2018-03-20T00:16:24.568Z,1006.2
2018-03-20T00:17:26.516Z,1006.3
2018-03-20T00:18:28.317Z,1006.2
2018-03-20T00:19:29.928Z,1006.3
2018-03-20T00:20:31.686Z,1006.2
2018-03-20T00:21:33.423Z,1006.2
2018-03-20T00:22:34.947Z,1006.3
2018-03-20T00:23:36.787Z,1006.2
2018-03-20T00:24:38.385Z,1006.3
2018-03-20T00:25:40.147Z,1006.3
2018-03-20T00:26:41.799Z,1006.3
2018-03-20T00:27:43.448Z,1006.3
2018-03-20T00:28:45.119Z,1006.3
2018-03-20T00:29:46.763Z,1006.3
2018-03-20T00:30:48.581Z,1006.3
2018-03-20T00:31:50.353Z,1006.3
2018-03-20T00:32:52.158Z,1006.3
2018-03-20T00:33:53.842Z,1006.3
2018-03-20T00:34:55.624Z,1006.2
2018-03-20T00:35:57.408Z,1006.3
2018-03-20T00:36:59.132Z,1006.3
2018-03-20T00:38:00.974Z,1006.3
2018-03-20T00:39:02.832Z,1006.3
2018-03-20T00:40:04.598Z,1006.3
2018-03-20T00:41:06.269Z,1006.3
2018-03-20T00:42:07.902Z,1006.3
2018-03-20T00:43:09.825Z,1006.3
2018-03-20T00:44:11.605Z,1006.3
2018-03-20T00:45:13.327Z,1006.3
2018-03-20T00:46:15.107Z,1006.3
2018-03-20T00:47:16.953Z,1006.3
2018-03-20T00:48:18.745Z,1006.4
2018-03-20T00:49:20.435Z,1006.4
2018-03-20T00:50:22.212Z,1006.5
2018-03-20T00:51:24.082Z,1006.4
2018-03-20T00:52:25.821Z,1006.5
2018-03-20T00:53:27.663Z,1006.4
2018-03-20T00:54:29.444Z,1006.5
2018-03-20T00:55:31.270Z,1006.5
2018-03-20T00:56:33.082Z,1006.5
2018-03-20T00:57:34.862Z,1006.5
2018-03-20T00:58:36.599Z,1006.5
2018-03-20T00:59:38.293Z,1006.5
2018-03-20T01:00:40.116Z,1006.5
2018-03-20T01:01:41.855Z,1006.5
2018-03-20T01:02:43.664Z,1006.5
2018-03-20T01:03:45.423Z,1006.4
2018-03-20T01:04:47.275Z,1006.5
2018-03-20T01:05:49.042Z,1006.5
2018-03-20T01:06:50.660Z,1006.5
2018-03-20T01:07:52.371Z,1006.5
2018-03-20T01:08:54.177Z,1006.5
2018-03-20T01:09:56.107Z,1006.5
2018-03-20T01:10:57.880Z,1006.5
2018-03-20T01:11:59.518Z,1006.5
2018-03-20T01:13:01.408Z,1006.4
2018-03-20T01:14:03.187Z,1006.5
2018-03-20T01:15:04.950Z,1006.4
2018-03-20T01:16:06.754Z,1006.4
2018-03-20T01:17:08.508Z,1006.5
2018-03-20T01:18:10.371Z,1006.4
2018-03-20T01:19:11.955Z,1006.4
2018-03-20T01:20:13.772Z,1006.4
2018-03-20T01:21:15.662Z,1006.4
2018-03-20T01:22:17.310Z,1006.4
2018-03-20T01:23:19.100Z,1006.4
2018-03-20T01:24:20.902Z,1006.4
2018-03-20T01:25:23.336Z,1006.4
2018-03-20T01:26:25.222Z,1006.4
2018-03-20T01:27:26.865Z,1006.3
2018-03-20T01:28:28.444Z,1006.4
2018-03-20T01:29:30.308Z,1006.4
2018-03-20T01:30:32.111Z,1006.4
2018-03-20T01:31:33.815Z,1006.3
2018-03-20T01:32:35.593Z,1006.4
2018-03-20T01:33:37.370Z,1006.3
2018-03-20T01:34:39.133Z,1006.3
2018-03-20T01:35:40.850Z,1006.3
2018-03-20T01:36:42.599Z,1006.4
2018-03-20T01:37:44.282Z,1006.4
2018-03-20T01:38:46.002Z,1006.4
2018-03-20T01:39:47.824Z,1006.4
2018-03-20T01:40:49.623Z,1006.4
2018-03-20T01:41:51.292Z,1006.4
2018-03-20T01:42:53.189Z,1006.4
2018-03-20T01:43:54.990Z,1006.4
2018-03-20T01:44:56.842Z,1006.4
2018-03-20T01:45:58.632Z,1006.4
2018-03-20T01:47:00.436Z,1006.4
2018-03-20T01:48:02.253Z,1006.4
2018-03-20T01:49:03.876Z,1006.3
2018-03-20T01:50:05.671Z,1006.4
2018-03-20T01:51:07.414Z,1006.3
2018-03-20T01:52:09.317Z,1006.3
2018-03-20T01:53:11.174Z,1006.3
2018-03-20T01:54:12.940Z,1006.3
2018-03-20T01:55:14.532Z,1006.3
2018-03-20T01:56:16.233Z,1006.3
2018-03-20T01:57:17.845Z,1006.2
2018-03-20T01:58:19.679Z,1006.2
2018-03-20T01:59:21.487Z,1006.3
2018-03-20T02:00:23.221Z,1006.2
2018-03-20T02:01:25.013Z,1006.2
2018-03-20T02:02:26.858Z,1006.2
2018-03-20T02:03:28.577Z,1006.3
2018-03-20T02:04:30.526Z,1006.2
2018-03-20T02:05:32.413Z,1006.2
2018-03-20T02:06:34.077Z,1006.2
2018-03-20T02:07:35.963Z,1006.1
2018-03-20T02:08:37.843Z,1006.2
2018-03-20T02:09:39.567Z,1006.1
2018-03-20T02:10:41.482Z,1006.2
2018-03-20T02:11:43.260Z,1006.2
2018-03-20T02:12:44.917Z,1006.2
2018-03-20T02:13:46.508Z,1006.1
2018-03-20T02:14:48.211Z,1006.1
2018-03-20T02:15:49.971Z,1006.1
2018-03-20T02:16:51.783Z,1006.1
2018-03-20T02:17:53.425Z,1006.2
2018-03-20T02:18:55.304Z,1006.2
2018-03-20T02:19:57.071Z,1006.1
2018-03-20T02:20:58.803Z,1006.2
2018-03-20T02:22:00.588Z,1006.2
2018-03-20T02:23:02.286Z,1006.2
2018-03-20T02:24:04.152Z,1006.1
2018-03-20T02:25:05.891Z,1006.2
2018-03-20T02:26:07.572Z,1006.1
2018-03-20T02:27:09.370Z,1006.1
2018-03-20T02:28:11.146Z,1006.1
2018-03-20T02:29:12.978Z,1006.1
2018-03-20T02:30:14.799Z,1006.1
2018-03-20T02:31:16.548Z,1006.1
2018-03-20T02:32:18.242Z,1006.1
2018-03-20T02:33:19.971Z,1006.1
2018-03-20T02:34:21.769Z,1006.1
2018-03-20T02:35:23.457Z,1006.0
2018-03-20T02:36:25.190Z,1006.0
2018-03-20T02:37:26.807Z,1006.0
2018-03-20T02:38:28.651Z,1006.0
2018-03-20T02:39:30.386Z,1006.0
2018-03-20T02:40:32.234Z,1005.9
2018-03-20T02:41:33.904Z,1005.9
2018-03-20T02:42:35.596Z,1005.9
2018-03-20T02:43:37.242Z,1005.8
2018-03-20T02:44:38.985Z,1005.8
2018-03-20T02:45:40.782Z,1005.7
2018-03-20T02:46:42.629Z,1005.7
2018-03-20T02:47:44.390Z,1005.6
2018-03-20T02:48:46.179Z,1005.5
2018-03-20T02:49:47.957Z,1005.5
2018-03-20T02:50:49.609Z,1005.6
2018-03-20T02:51:51.560Z,1005.7
2018-03-20T02:52:55.024Z,1005.8
2018-03-20T02:53:56.839Z,1005.9
2018-03-20T02:54:58.730Z,1005.8
2018-03-20T02:56:00.437Z,1005.8
2018-03-20T02:57:02.338Z,1005.8
2018-03-20T02:58:04.201Z,1005.8
2018-03-20T02:59:05.849Z,1005.9
2018-03-20T03:00:07.576Z,1005.9
2018-03-20T03:01:09.232Z,1006.0
2018-03-20T03:02:11.043Z,1005.9
2018-03-20T03:03:12.911Z,1005.9
2018-03-20T03:04:14.858Z,1005.9
2018-03-20T03:05:16.544Z,1005.9
2018-03-20T03:06:18.397Z,1005.9
2018-03-20T03:07:20.022Z,1005.9
2018-03-20T03:08:21.692Z,1005.9
2018-03-20T03:09:23.619Z,1005.8
2018-03-20T03:10:25.366Z,1005.8
2018-03-20T03:11:27.219Z,1005.8
2018-03-20T03:12:28.814Z,1005.8
2018-03-20T03:13:30.641Z,1005.8
2018-03-20T03:14:32.400Z,1005.8
2018-03-20T03:15:34.300Z,1005.8
2018-03-20T03:16:36.019Z,1005.8
2018-03-20T03:17:37.675Z,1005.8
2018-03-20T03:18:39.609Z,1005.8
2018-03-20T03:19:41.494Z,1005.8
2018-03-20T03:20:43.268Z,1005.8
2018-03-20T03:21:44.962Z,1005.8
2018-03-20T03:22:46.723Z,1005.8
2018-03-20T03:23:48.697Z,1005.8
2018-03-20T03:24:50.330Z,1005.8
2018-03-20T03:25:52.996Z,1005.8
2018-03-20T03:26:54.852Z,1005.8
2018-03-20T03:27:56.539Z,1005.8
2018-03-20T03:28:58.358Z,1005.9
2018-03-20T03:30:00.029Z,1005.8
2018-03-20T03:31:01.861Z,1005.9
2018-03-20T03:32:03.859Z,1005.8
2018-03-20T03:33:05.604Z,1005.9
2018-03-20T03:34:07.467Z,1005.8
2018-03-20T03:35:09.054Z,1005.8
2018-03-20T03:36:10.948Z,1005.8
2018-03-20T03:37:12.944Z,1005.8
2018-03-20T03:38:14.773Z,1005.8
2018-03-20T03:39:16.489Z,1005.7
2018-03-20T03:40:18.424Z,1005.7
2018-03-20T03:41:20.288Z,1005.7
2018-03-20T03:42:22.119Z,1005.6
2018-03-20T03:43:24.034Z,1005.6
2018-03-20T03:44:25.596Z,1005.6
2018-03-20T03:45:27.455Z,1005.6
2018-03-20T03:46:29.196Z,1005.6
2018-03-20T03:47:30.885Z,1005.6
2018-03-20T03:48:32.780Z,1005.6
2018-03-20T03:49:34.649Z,1005.6
2018-03-20T03:50:36.281Z,1005.6
2018-03-20T03:51:38.031Z,1005.6
2018-03-20T03:52:39.882Z,1005.6
2018-03-20T03:53:41.708Z,1005.6
2018-03-20T03:54:43.553Z,1005.6
2018-03-20T03:55:45.323Z,1005.6
2018-03-20T03:56:47.136Z,1005.6
2018-03-20T03:57:48.821Z,1005.6
2018-03-20T03:58:50.481Z,1005.5
2018-03-20T03:59:52.154Z,1005.5
2018-03-20T04:00:54.090Z,1005.5
2018-03-20T04:01:55.969Z,1005.6
2018-03-20T04:02:57.711Z,1005.6
2018-03-20T04:03:59.590Z,1005.6
2018-03-20T04:05:01.467Z,1005.6
2018-03-20T04:06:03.220Z,1005.6
2018-03-20T04:07:04.971Z,1005.6
2018-03-20T04:08:06.915Z,1005.6
2018-03-20T04:09:08.723Z,1005.6
2018-03-20T04:10:10.365Z,1005.6
2018-03-20T04:11:12.208Z,1005.6
2018-03-20T04:12:13.851Z,1005.6
2018-03-20T04:13:15.618Z,1005.6
2018-03-20T04:14:17.566Z,1005.6
2018-03-20T04:15:19.277Z,1005.6
2018-03-20T04:16:21.208Z,1005.6
2018-03-20T04:17:23.107Z,1005.6
2018-03-20T04:18:24.937Z,1005.5
2018-03-20T04:19:26.775Z,1005.6
2018-03-20T04:20:28.499Z,1005.5
2018-03-20T04:21:30.375Z,1005.5
2018-03-20T04:22:32.179Z,1005.5
2018-03-20T04:23:34.082Z,1005.6
2018-03-20T04:24:35.775Z,1005.6
2018-03-20T04:25:37.609Z,1005.6
2018-03-20T04:26:39.371Z,1005.6
2018-03-20T04:27:40.967Z,1005.6
2018-03-20T04:28:42.998Z,1005.6
2018-03-20T04:29:44.957Z,1005.5
2018-03-20T04:30:46.770Z,1005.6
2018-03-20T04:31:48.718Z,1005.6
2018-03-20T04:32:50.825Z,1005.6
2018-03-20T04:33:52.650Z,1005.6
2018-03-20T04:34:54.383Z,1005.6
2018-03-20T04:35:56.187Z,1005.5
2018-03-20T04:36:58.252Z,1005.5
2018-03-20T04:37:59.991Z,1005.6
2018-03-20T04:39:01.837Z,1005.6
2018-03-20T04:40:03.488Z,1005.6
2018-03-20T04:41:05.313Z,1005.6
2018-03-20T04:42:06.917Z,1005.6
2018-03-20T04:43:08.779Z,1005.5
2018-03-20T04:44:10.331Z,1005.5
2018-03-20T04:45:12.225Z,1005.5
2018-03-20T04:46:14.065Z,1005.5
2018-03-20T04:47:15.647Z,1005.5
2018-03-20T04:48:17.310Z,1005.5
2018-03-20T04:49:19.186Z,1005.6
2018-03-20T04:50:20.931Z,1005.6
2018-03-20T04:51:23.493Z,1005.6
2018-03-20T04:52:25.388Z,1005.5
2018-03-20T04:53:27.250Z,1005.6
2018-03-20T04:54:28.827Z,1005.6
2018-03-20T04:55:30.412Z,1005.6
2018-03-20T04:56:32.360Z,1005.6
2018-03-20T04:57:34.144Z,1005.6
2018-03-20T04:58:35.993Z,1005.6
2018-03-20T04:59:37.715Z,1005.6
2018-03-20T05:00:39.979Z,1005.6
2018-03-20T05:01:42.174Z,1005.6
2018-03-20T05:02:43.874Z,1005.6
2018-03-20T05:03:46.059Z,1005.7
2018-03-20T05:04:47.622Z,1005.7
2018-03-20T05:05:49.312Z,1005.6
2018-03-20T05:06:51.153Z,1005.6
2018-03-20T05:07:52.914Z,1005.7
2018-03-20T05:08:54.657Z,1005.7
2018-03-20T05:09:57.263Z,1005.7
2018-03-20T05:10:59.297Z,1005.6
2018-03-20T05:12:01.019Z,1005.6
2018-03-20T05:13:03.301Z,1005.7
2018-03-20T05:14:04.967Z,1005.8
2018-03-20T05:15:06.930Z,1005.7
2018-03-20T05:16:09.194Z,1005.8
2018-03-20T05:17:11.351Z,1005.8
2018-03-20T05:18:13.203Z,1005.8
2018-03-20T05:19:14.850Z,1005.8
2018-03-20T05:20:16.600Z,1005.8
2018-03-20T05:21:18.838Z,1005.8
2018-03-20T05:22:20.928Z,1005.8
2018-03-20T05:23:22.565Z,1005.8
2018-03-20T05:24:24.341Z,1005.8
2018-03-20T05:25:26.300Z,1005.7
2018-03-20T05:26:28.405Z,1005.7
2018-03-20T05:27:30.157Z,1005.8
2018-03-20T05:28:32.163Z,1005.8
2018-03-20T05:29:34.132Z,1005.8
2018-03-20T05:30:35.733Z,1005.8
2018-03-20T05:31:37.628Z,1005.8
2018-03-20T05:32:39.748Z,1005.8
2018-03-20T05:33:41.760Z,1005.8
2018-03-20T05:34:43.542Z,1005.8
2018-03-20T05:35:45.429Z,1005.8
2018-03-20T05:36:47.112Z,1005.8
2018-03-20T05:37:48.985Z,1005.7
2018-03-20T05:38:50.742Z,1005.7
2018-03-20T05:39:52.364Z,1005.7
2018-03-20T05:40:53.978Z,1005.8
2018-03-20T05:41:55.803Z,1005.8
2018-03-20T05:42:57.396Z,1005.8
2018-03-20T05:43:59.190Z,1005.8
2018-03-20T05:45:00.816Z,1005.8
2018-03-20T05:46:02.863Z,1005.8
2018-03-20T05:47:04.632Z,1005.9
2018-03-20T05:48:06.249Z,1005.9
2018-03-20T05:49:08.007Z,1005.8
2018-03-20T05:50:09.745Z,1005.9
2018-03-20T05:51:11.838Z,1005.9
2018-03-20T05:52:13.575Z,1005.9
2018-03-20T05:53:15.380Z,1005.9
2018-03-20T05:54:17.336Z,1005.9
2018-03-20T05:55:19.091Z,1005.9
2018-03-20T05:56:20.992Z,1005.9
2018-03-20T05:57:22.644Z,1005.9
2018-03-20T05:58:24.423Z,1006.0
2018-03-20T05:59:26.175Z,1006.0
2018-03-20T06:00:28.373Z,1006.0
2018-03-20T06:01:29.967Z,1006.0
2018-03-20T06:02:32.075Z,1006.1
2018-03-20T06:03:33.725Z,1006.1
2018-03-20T06:04:35.302Z,1006.1
2018-03-20T06:05:37.254Z,1006.1
2018-03-20T06:06:39.033Z,1006.1
2018-03-20T06:07:41.185Z,1006.1
2018-03-20T06:08:43.106Z,1006.2
2018-03-20T06:09:45.042Z,1006.1
2018-03-20T06:10:47.095Z,1006.1
2018-03-20T06:11:48.801Z,1006.2
2018-03-20T06:12:50.680Z,1006.1
2018-03-20T06:13:52.809Z,1006.1
2018-03-20T06:14:54.379Z,1006.1
2018-03-20T06:15:56.520Z,1006.1
2018-03-20T06:16:58.138Z,1006.1
2018-03-20T06:18:00.059Z,1006.1
2018-03-20T06:19:01.653Z,1006.1
2018-03-20T06:20:03.266Z,1006.1
2018-03-20T06:21:05.291Z,1006.1
2018-03-20T06:22:07.024Z,1006.1
2018-03-20T06:23:08.644Z,1006.1
2018-03-20T06:24:10.149Z,1006.1
2018-03-20T06:25:11.897Z,1006.1
2018-03-20T06:26:14.039Z,1006.1
2018-03-20T06:27:15.742Z,1006.1
2018-03-20T06:28:17.555Z,1006.1
2018-03-20T06:29:19.377Z,1006.1
2018-03-20T06:30:21.091Z,1006.1
2018-03-20T06:31:22.818Z,1006.1
2018-03-20T06:32:24.846Z,1006.1
2018-03-20T06:33:26.647Z,1006.1
2018-03-20T06:34:28.651Z,1006.1
2018-03-20T06:35:30.622Z,1006.0
2018-03-20T06:36:32.115Z,1006.0
2018-03-20T06:37:33.887Z,1006.1
2018-03-20T06:38:35.989Z,1006.0
2018-03-20T06:39:37.730Z,1006.0
2018-03-20T06:40:39.450Z,1006.0
2018-03-20T06:41:40.956Z,1006.1
2018-03-20T06:42:42.863Z,1006.0
2018-03-20T06:43:44.543Z,1006.0
2018-03-20T06:44:46.430Z,1006.0
2018-03-20T06:45:48.252Z,1006.0
2018-03-20T06:46:49.748Z,1006.0
2018-03-20T06:47:51.510Z,1006.1
2018-03-20T06:48:53.014Z,1006.1
2018-03-20T06:49:54.677Z,1006.1
2018-03-20T06:50:56.450Z,1006.1
2018-03-20T06:51:58.131Z,1006.1
2018-03-20T06:52:59.605Z,1006.1
2018-03-20T06:54:01.612Z,1006.2
2018-03-20T06:55:03.903Z,1006.2
2018-03-20T06:56:05.343Z,1006.2
2018-03-20T06:57:07.432Z,1006.3
2018-03-20T06:58:09.463Z,1006.2
2018-03-20T06:59:11.198Z,1006.2
2018-03-20T07:00:12.865Z,1006.3
2018-03-20T07:01:14.916Z,1006.4
2018-03-20T07:02:16.785Z,1006.3
2018-03-20T07:03:18.583Z,1006.3
2018-03-20T07:04:20.811Z,1006.3
2018-03-20T07:05:22.952Z,1006.4
2018-03-20T07:06:24.828Z,1006.4
2018-03-20T07:07:27.578Z,1006.4
2018-03-20T07:08:29.405Z,1006.4
2018-03-20T07:09:31.172Z,1006.4
2018-03-20T07:10:32.974Z,1006.5
2018-03-20T07:11:35.134Z,1006.5
2018-03-20T07:12:37.014Z,1006.5
2018-03-20T07:13:38.560Z,1006.5
2018-03-20T07:14:40.548Z,1006.6
2018-03-20T07:15:42.611Z,1006.6
2018-03-20T07:16:44.883Z,1006.6
2018-03-20T07:17:46.366Z,1006.6
2018-03-20T07:18:48.041Z,1006.6
2018-03-20T07:19:49.918Z,1006.6
2018-03-20T07:20:51.827Z,1006.7
2018-03-20T07:21:53.607Z,1006.7
2018-03-20T07:22:55.336Z,1006.6
2018-03-20T07:23:56.999Z,1006.7
2018-03-20T07:24:58.940Z,1006.7
2018-03-20T07:26:00.738Z,1006.7
2018-03-20T07:27:02.745Z,1006.7
2018-03-20T07:28:04.436Z,1006.7
2018-03-20T07:29:06.110Z,1006.7
2018-03-20T07:30:07.702Z,1006.7
2018-03-20T07:31:09.634Z,1006.7
2018-03-20T07:32:11.294Z,1006.7
2018-03-20T07:33:12.785Z,1006.8
2018-03-20T07:34:14.560Z,1006.9
2018-03-20T07:35:16.767Z,1006.8
2018-03-20T07:36:18.846Z,1006.9
2018-03-20T07:37:20.539Z,1006.9
2018-03-20T07:38:22.176Z,1007.0
2018-03-20T07:39:24.264Z,1007.0
2018-03-20T07:40:26.828Z,1007.0
2018-03-20T07:41:28.665Z,1007.0
2018-03-20T07:42:30.406Z,1007.1
2018-03-20T07:43:32.223Z,1007.1
2018-03-20T07:44:33.986Z,1007.1
2018-03-20T07:45:36.129Z,1007.2
2018-03-20T07:46:38.438Z,1007.1
2018-03-20T07:47:40.145Z,1007.1
2018-03-20T07:48:42.703Z,1007.1
2018-03-20T07:49:44.442Z,1007.1
2018-03-20T07:50:46.408Z,1007.1
2018-03-20T07:51:48.417Z,1007.2
2018-03-20T07:52:50.085Z,1007.2
2018-03-20T07:53:52.005Z,1007.2
2018-03-20T07:54:53.907Z,1007.2
2018-03-20T07:55:55.771Z,1007.3
2018-03-20T07:56:57.953Z,1007.3
2018-03-20T07:57:59.640Z,1007.3
2018-03-20T07:59:01.158Z,1007.3
2018-03-20T08:00:02.735Z,1007.3
2018-03-20T08:01:04.236Z,1007.3
2018-03-20T08:02:05.858Z,1007.3
2018-03-20T08:03:07.316Z,1007.3
2018-03-20T08:04:08.947Z,1007.3
2018-03-20T08:05:10.620Z,1007.3
2018-03-20T08:06:12.034Z,1007.3
2018-03-20T08:07:13.535Z,1007.3
2018-03-20T08:08:15.312Z,1007.4
2018-03-20T08:09:16.850Z,1007.4
2018-03-20T08:10:18.597Z,1007.3
2018-03-20T08:11:20.375Z,1007.4
2018-03-20T08:12:22.118Z,1007.3
2018-03-20T08:13:23.754Z,1007.4
2018-03-20T08:14:25.693Z,1007.4
2018-03-20T08:15:27.869Z,1007.4
2018-03-20T08:16:29.807Z,1007.4
2018-03-20T08:17:31.430Z,1007.4
2018-03-20T08:18:33.382Z,1007.4
2018-03-20T08:19:35.161Z,1007.4
2018-03-20T08:20:37.246Z,1007.4
2018-03-20T08:21:39.509Z,1007.5
2018-03-20T08:22:41.197Z,1007.5
2018-03-20T08:23:42.934Z,1007.6
2018-03-20T08:24:44.739Z,1007.6
2018-03-20T08:25:46.757Z,1007.6
2018-03-20T08:26:48.706Z,1007.6
2018-03-20T08:27:50.519Z,1007.6
2018-03-20T08:28:52.523Z,1007.6
2018-03-20T08:29:54.666Z,1007.6
2018-03-20T08:30:56.345Z,1007.6
2018-03-20T08:31:58.128Z,1007.6
2018-03-20T08:32:59.738Z,1007.6
2018-03-20T08:34:01.659Z,1007.6
2018-03-20T08:35:03.819Z,1007.7
2018-03-20T08:36:05.405Z,1007.7
2018-03-20T08:37:06.915Z,1007.8
2018-03-20T08:38:09.087Z,1007.8
2018-03-20T08:39:10.695Z,1007.8
2018-03-20T08:40:12.783Z,1007.9
2018-03-20T08:41:14.529Z,1007.9
2018-03-20T08:42:16.164Z,1007.9
2018-03-20T08:43:18.250Z,1007.9
2018-03-20T08:44:20.071Z,1008.1
2018-03-20T08:45:21.690Z,1008.0
2018-03-20T08:46:23.451Z,1008.0
2018-03-20T08:47:24.965Z,1008.0
2018-03-20T08:48:26.731Z,1008.1
2018-03-20T08:49:28.372Z,1008.1
2018-03-20T08:50:30.347Z,1008.2
2018-03-20T08:51:32.085Z,1008.2
2018-03-20T08:52:33.703Z,1008.2
2018-03-20T08:53:35.453Z,1008.2
2018-03-20T08:54:37.267Z,1008.1
2018-03-20T08:55:39.185Z,1008.1
2018-03-20T08:56:40.773Z,1008.3
2018-03-20T08:57:42.617Z,1008.3
2018-03-20T08:58:44.331Z,1008.3
2018-03-20T08:59:46.063Z,1008.5
2018-03-20T09:00:47.881Z,1008.5
2018-03-20T09:01:49.488Z,1008.5
2018-03-20T09:02:51.210Z,1008.6
2018-03-20T09:03:52.954Z,1008.4
2018-03-20T09:04:54.807Z,1008.5
2018-03-20T09:05:56.479Z,1008.5
2018-03-20T09:06:58.254Z,1008.7
2018-03-20T09:07:59.998Z,1008.7
2018-03-20T09:09:01.775Z,1008.7
2018-03-20T09:10:03.517Z,1008.7
2018-03-20T09:11:05.206Z,1008.7
2018-03-20T09:12:06.862Z,1008.9
2018-03-20T09:13:08.622Z,1008.6
2018-03-20T09:14:10.358Z,1008.7
2018-03-20T09:15:12.027Z,1008.6
2018-03-20T09:16:13.626Z,1008.6
2018-03-20T09:17:15.377Z,1008.7
2018-03-20T09:18:17.047Z,1009.5
2018-03-20T09:19:18.554Z,1009.5
2018-03-20T09:20:20.287Z,1009.7
2018-03-20T09:21:22.177Z,1008.7
2018-03-20T09:22:23.733Z,1009.5
2018-03-20T09:23:25.430Z,1009.6
2018-03-20T09:24:27.126Z,1009.6
2018-03-20T09:25:28.894Z,1009.5
2018-03-20T09:26:30.636Z,1009.4
2018-03-20T09:27:32.447Z,1009.6
2018-03-20T09:28:34.014Z,1009.7
2018-03-20T09:29:35.890Z,1009.6
2018-03-20T09:30:37.846Z,1009.8
2018-03-20T09:31:39.679Z,1009.9
2018-03-20T09:32:41.312Z,1009.1
2018-03-20T09:33:42.892Z,1009.1
2018-03-20T09:34:44.815Z,1009.7
2018-03-20T09:35:46.650Z,1009.0
2018-03-20T09:36:48.631Z,1009.0
2018-03-20T09:37:50.613Z,1009.1
2018-03-20T09:38:52.316Z,1009.1
2018-03-20T09:39:53.977Z,1009.0
2018-03-20T09:40:55.623Z,1008.9
2018-03-20T09:41:57.262Z,1009.0
2018-03-20T09:42:59.094Z,1009.5
2018-03-20T09:44:01.154Z,1009.5
2018-03-20T09:45:03.080Z,1009.7
2018-03-20T09:46:05.170Z,1009.2
2018-03-20T09:47:06.733Z,1009.4
2018-03-20T09:48:08.916Z,1009.6
2018-03-20T09:49:10.751Z,1009.7
2018-03-20T09:50:12.469Z,1009.7
2018-03-20T09:51:14.107Z,1009.8
2018-03-20T09:52:15.765Z,1009.8
2018-03-20T09:53:17.347Z,1009.6
2018-03-20T09:54:19.338Z,1009.9
2018-03-20T09:55:21.448Z,1009.3
2018-03-20T09:56:23.277Z,1009.4
2018-03-20T09:57:25.041Z,1009.9
2018-03-20T09:58:26.630Z,1009.8
2018-03-20T09:59:28.474Z,1009.4
2018-03-20T10:00:30.251Z,1010.0
2018-03-20T10:01:31.879Z,1009.4
2018-03-20T10:02:33.716Z,1009.2
2018-03-20T10:03:35.484Z,1009.2
2018-03-20T10:04:37.116Z,1009.2
2018-03-20T10:05:38.883Z,1009.7
2018-03-20T10:06:40.501Z,1009.8
2018-03-20T10:07:42.317Z,1009.8
2018-03-20T10:08:44.010Z,1009.9
2018-03-20T10:09:45.703Z,1009.8
2018-03-20T10:10:47.338Z,1009.9
2018-03-20T10:11:48.995Z,1010.1
2018-03-20T10:12:50.652Z,1009.8
2018-03-20T10:13:52.494Z,1009.7
2018-03-20T10:14:54.218Z,1010.2
2018-03-20T10:15:56.181Z,1009.7
2018-03-20T10:16:57.888Z,1009.4
2018-03-20T10:17:59.796Z,1010.2
2018-03-20T10:19:01.394Z,1010.0
2018-03-20T10:20:03.047Z,1009.5
2018-03-20T10:21:04.644Z,1009.8
2018-03-20T10:22:06.282Z,1009.5
2018-03-20T10:23:08.188Z,1009.7
2018-03-20T10:24:10.008Z,1009.7
2018-03-20T10:25:11.581Z,1009.6
2018-03-20T10:26:13.308Z,1009.7
2018-03-20T10:27:15.188Z,1009.7
2018-03-20T10:28:16.920Z,1009.7
2018-03-20T10:29:18.662Z,1009.8
2018-03-20T10:30:20.321Z,1009.8
2018-03-20T10:31:21.961Z,1009.8
2018-03-20T10:32:23.616Z,1009.9
2018-03-20T10:33:25.249Z,1009.9
2018-03-20T10:34:27.234Z,1009.8
2018-03-20T10:35:28.875Z,1009.9
2018-03-20T10:36:30.531Z,1009.9
2018-03-20T10:37:32.598Z,1009.9
2018-03-20T10:38:34.406Z,1009.9
2018-03-20T10:39:35.953Z,1009.8
2018-03-20T10:40:37.786Z,1009.9
2018-03-20T10:41:39.708Z,1010.0
2018-03-20T10:42:41.378Z,1010.0
2018-03-20T10:43:43.452Z,1009.9
2018-03-20T10:44:45.047Z,1010.0
2018-03-20T10:45:46.656Z,1010.0
2018-03-20T10:46:48.534Z,1010.0
2018-03-20T10:47:50.207Z,1010.0
2018-03-20T10:48:51.924Z,1009.9
2018-03-20T10:49:53.455Z,1010.0
2018-03-20T10:50:55.233Z,1010.1
2018-03-20T10:51:57.129Z,1010.1
2018-03-20T10:52:58.737Z,1010.1
2018-03-20T10:54:00.339Z,1010.1
2018-03-20T10:55:02.106Z,1010.1
2018-03-20T10:56:03.779Z,1010.1
2018-03-20T10:57:05.356Z,1010.1
2018-03-20T10:58:07.170Z,1010.2
2018-03-20T10:59:08.982Z,1010.1
2018-03-20T11:00:10.816Z,1010.2
2018-03-20T11:01:12.717Z,1010.3
2018-03-20T11:02:14.441Z,1010.3
2018-03-20T11:03:16.144Z,1010.3
2018-03-20T11:04:18.063Z,1010.1
2018-03-20T11:05:19.869Z,1010.4
2018-03-20T11:06:21.472Z,1010.3
2018-03-20T11:07:23.130Z,1010.3
2018-03-20T11:08:25.127Z,1010.1
2018-03-20T11:09:26.706Z,1010.2
2018-03-20T11:10:28.290Z,1010.3
2018-03-20T11:11:30.039Z,1010.2
2018-03-20T11:12:31.734Z,1010.0
2018-03-20T11:13:33.430Z,1010.2
2018-03-20T11:14:35.100Z,1010.1
2018-03-20T11:15:36.650Z,1010.1
2018-03-20T11:16:38.410Z,1010.1
2018-03-20T11:17:40.162Z,1010.3
2018-03-20T11:18:41.891Z,1010.3
2018-03-20T11:19:43.528Z,1010.4
2018-03-20T11:20:45.205Z,1010.3
2018-03-20T11:21:46.768Z,1010.3
2018-03-20T11:22:48.588Z,1010.3
2018-03-20T11:23:50.210Z,1010.3
2018-03-20T11:24:51.773Z,1010.4
2018-03-20T11:25:53.481Z,1010.4
2018-03-20T11:26:55.133Z,1010.4
2018-03-20T11:27:56.827Z,1010.2
2018-03-20T11:28:58.514Z,1010.3
2018-03-20T11:30:00.364Z,1010.5
2018-03-20T11:31:02.065Z,1010.5
2018-03-20T11:32:03.696Z,1010.5
2018-03-20T11:33:05.537Z,1010.5
2018-03-20T11:34:07.247Z,1010.5
2018-03-20T11:35:09.062Z,1010.4
2018-03-20T11:36:10.875Z,1010.5
2018-03-20T11:37:12.647Z,1010.5
2018-03-20T11:38:14.341Z,1010.5
2018-03-20T11:39:16.079Z,1010.5
2018-03-20T11:40:17.886Z,1010.5
2018-03-20T11:41:19.929Z,1010.5
2018-03-20T11:42:21.500Z,1010.5
2018-03-20T11:43:23.304Z,1010.5
2018-03-20T11:44:24.938Z,1010.6
2018-03-20T11:45:26.713Z,1010.5
2018-03-20T11:46:28.421Z,1010.5
2018-03-20T11:47:30.101Z,1010.6
2018-03-20T11:48:31.842Z,1010.6
2018-03-20T11:49:33.499Z,1010.6
2018-03-20T11:50:35.292Z,1010.6
2018-03-20T11:51:36.826Z,1010.4
2018-03-20T11:52:38.529Z,1010.6
2018-03-20T11:53:40.114Z,1010.5
2018-03-20T11:54:41.867Z,1010.7
2018-03-20T11:55:43.552Z,1010.4
2018-03-20T11:56:45.226Z,1010.8
2018-03-20T11:57:46.925Z,1010.7
2018-03-20T11:58:48.608Z,1010.6
2018-03-20T11:59:50.369Z,1010.5
2018-03-20T12:00:51.988Z,1010.5
2018-03-20T12:01:53.760Z,1010.4
2018-03-20T12:02:55.725Z,1010.6
2018-03-20T12:03:57.667Z,1010.6
2018-03-20T12:04:59.423Z,1010.6
2018-03-20T12:06:01.093Z,1010.6
2018-03-20T12:07:02.764Z,1010.6
2018-03-20T12:08:04.459Z,1010.6
2018-03-20T12:09:06.204Z,1010.7
2018-03-20T12:10:07.819Z,1010.7
2018-03-20T12:11:09.713Z,1010.6
2018-03-20T12:12:11.575Z,1010.7
2018-03-20T12:13:13.200Z,1010.7
2018-03-20T12:14:14.995Z,1010.7
2018-03-20T12:15:16.589Z,1010.7
2018-03-20T12:16:18.398Z,1010.8
2018-03-20T12:17:20.018Z,1010.8
2018-03-20T12:18:21.636Z,1010.7
2018-03-20T12:19:23.539Z,1010.8
2018-03-20T12:20:25.740Z,1010.8
2018-03-20T12:21:27.467Z,1010.7
2018-03-20T12:22:29.181Z,1010.8
2018-03-20T12:23:30.890Z,1010.8
2018-03-20T12:24:32.504Z,1010.7
2018-03-20T12:25:34.236Z,1010.8
2018-03-20T12:26:35.815Z,1010.8
2018-03-20T12:27:37.665Z,1010.8
2018-03-20T12:28:39.223Z,1010.7
2018-03-20T12:29:40.740Z,1010.7
2018-03-20T12:30:42.353Z,1010.7
2018-03-20T12:31:44.329Z,1010.8
2018-03-20T12:32:45.983Z,1010.7
2018-03-20T12:33:47.572Z,1010.8
2018-03-20T12:34:49.275Z,1010.8
2018-03-20T12:35:50.882Z,1010.8
2018-03-20T12:36:52.487Z,1010.8
2018-03-20T12:37:54.133Z,1010.8
2018-03-20T12:38:55.846Z,1010.9
2018-03-20T12:39:57.623Z,1010.8
2018-03-20T12:40:59.427Z,1010.6
2018-03-20T12:42:01.082Z,1011.0
2018-03-20T12:43:02.712Z,1010.9
2018-03-20T12:44:04.551Z,1011.0
2018-03-20T12:45:06.427Z,1011.0
2018-03-20T12:46:08.258Z,1011.0
2018-03-20T12:47:10.099Z,1011.1
2018-03-20T12:48:11.891Z,1011.0
2018-03-20T12:49:13.537Z,1011.0
2018-03-20T12:50:15.151Z,1011.0
2018-03-20T12:51:16.934Z,1011.0